^^
Saratoga-Weather Station Historical Data
Daily Summary for August 13, 2019 Units:  Metric    English   Both
Daily Weekly Monthly Yearly
  High: Low: Average:
Temperature: 28.8 °C 19.3 °C 24 °C
Dew Point: 20.4 °C 17.4 °C 18.9 °C
Humidity: 91.4% 53.8% 75%
Wind Speed: 16.5km/h 0km/h 8.9km/h
Wind Gust: 20.9km/h - -
Wind- - WSW
Pressure: 1010.5 hPa 1007.0 hPa -
Precipitation: 0.0 mm    
 
 
Tabular Data for August 13, 2019
Time Temperature Dew Point Pressure Wind Wind Speed Wind Gust Humidity Rainfall Rate (Hourly) solar
00:04 22 °C 20.3 °C 1010.3 hPa SW 4.8 km/h 6.4 km/h 90% 0.0 mm 0 W/m2
00:09 21.9 °C 20.2 °C 1010.4 hPa SW 6 km/h 6.3 km/h 90% 0.0 mm 0 W/m2
00:14 21.9 °C 20.1 °C 1010.4 hPa SW 5.4 km/h 8 km/h 90% 0.0 mm 0 W/m2
00:19 21.8 °C 20.1 °C 1010.4 hPa SW 6.8 km/h 6.4 km/h 90% 0.0 mm 0 W/m2
00:23 21.8 °C 20.1 °C 1010.4 hPa SW 5.9 km/h 9.7 km/h 90% 0.0 mm 0 W/m2
00:29 21.7 °C 19.9 °C 1010.4 hPa SSW 5.6 km/h 3.2 km/h 90% 0.0 mm 0 W/m2
00:34 21.7 °C 19.9 °C 1010.4 hPa SSW 5.5 km/h 8 km/h 90% 0.0 mm 0 W/m2
00:39 21.6 °C 19.9 °C 1010.4 hPa SSW 5.4 km/h 6.4 km/h 90% 0.0 mm 0 W/m2
00:44 21.6 °C 19.8 °C 1010.5 hPa SSW 5.4 km/h 6.4 km/h 90% 0.0 mm 0 W/m2
00:49 21.6 °C 19.8 °C 1010.5 hPa SSW 2.5 km/h 4.8 km/h 90% 0.0 mm 0 W/m2
00:54 21.6 °C 19.8 °C 1010.4 hPa SSW 1 km/h 3.2 km/h 90% 0.0 mm 0 W/m2
00:59 21.5 °C 19.8 °C 1010.5 hPa SSW 3 km/h 1.8 km/h 90% 0.0 mm 0 W/m2
01:04 21.5 °C 19.8 °C 1010.3 hPa SSW 2.6 km/h 3.2 km/h 90% 0.0 mm 0 W/m2
01:09 21.5 °C 19.7 °C 1010.3 hPa SSW 3.2 km/h 3.2 km/h 90% 0.0 mm 0 W/m2
01:14 21.4 °C 19.7 °C 1010.2 hPa Calm   4.8 km/h 90% 0.0 mm 0 W/m2
01:19 21.4 °C 19.7 °C 1010.1 hPa Calm     90% 0.0 mm 0 W/m2
01:24 21.4 °C 19.7 °C 1010.1 hPa SSW 2.4 km/h 1.9 km/h 90% 0.0 mm 0 W/m2
01:29 21.4 °C 19.7 °C 1010.0 hPa SSW 3.1 km/h 3.2 km/h 89.6% 0.0 mm 0 W/m2
01:34 21.4 °C 19.7 °C 1009.9 hPa SSW 5 km/h 4.8 km/h 89.6% 0.0 mm 0 W/m2
01:39 21.4 °C 19.6 °C 1009.9 hPa SSW 3.9 km/h 6.4 km/h 89% 0.0 mm 0 W/m2
01:44 21.4 °C 19.5 °C 1010.0 hPa SSW 1.2 km/h 3.2 km/h 89% 0.0 mm 0 W/m2
01:49 21.4 °C 19.5 °C 1010.1 hPa Calm   1.6 km/h 89% 0.0 mm 0 W/m2
01:54 21.4 °C 19.5 °C 1010.1 hPa Calm     89% 0.0 mm 0 W/m2
01:59 21.4 °C 19.6 °C 1010.1 hPa SW 1.7 km/h 3.9 km/h 89.3% 0.0 mm 0 W/m2
02:03 21.5 °C 19.8 °C 1010.1 hPa West 4.4 km/h 6.4 km/h 90% 0.0 mm 0 W/m2
02:09 21.5 °C 19.8 °C 1010.0 hPa West 3.7 km/h 6.4 km/h 90% 0.0 mm 0 W/m2
02:14 21.6 °C 19.8 °C 1010.0 hPa West 3.1 km/h 3.2 km/h 90% 0.0 mm 0 W/m2
02:19 21.6 °C 19.8 °C 1009.9 hPa WSW 6.1 km/h 5.6 km/h 89.7% 0.0 mm 0 W/m2
02:24 21.6 °C 19.7 °C 1010.0 hPa WSW 4.9 km/h 9.7 km/h 89% 0.0 mm 0 W/m2
02:29 21.6 °C 19.7 °C 1010.0 hPa WSW 5.2 km/h 6.4 km/h 89% 0.0 mm 0 W/m2
02:34 21.6 °C 19.8 °C 1010.0 hPa West 6.5 km/h 6.4 km/h 89% 0.0 mm 0 W/m2
02:39 21.7 °C 19.8 °C 1010.0 hPa West 6.8 km/h 8 km/h 89% 0.0 mm 0 W/m2
02:44 21.7 °C 20 °C 1010.0 hPa West 5.2 km/h 9.7 km/h 89.7% 0.0 mm 0 W/m2
02:49 21.8 °C 20.1 °C 1010.0 hPa WNW 6.7 km/h 8 km/h 90% 0.0 mm 0 W/m2
02:54 21.8 °C 20.1 °C 1009.9 hPa West 6.4 km/h 9.7 km/h 90% 0.0 mm 0 W/m2
02:59 21.9 °C 20.1 °C 1009.9 hPa West 8 km/h 11.3 km/h 89.4% 0.0 mm 0 W/m2
03:04 21.9 °C 20 °C 1009.9 hPa West 5.8 km/h 9.7 km/h 89% 0.0 mm 0 W/m2
03:09 21.9 °C 20.1 °C 1009.9 hPa West 5.8 km/h 6.4 km/h 89% 0.0 mm 0 W/m2
03:14 22 °C 20.1 °C 1009.9 hPa West 5.4 km/h 8 km/h 89% 0.0 mm 0 W/m2
03:19 22.1 °C 20.2 °C 1009.9 hPa West 4.9 km/h 6.4 km/h 89% 0.0 mm 0 W/m2
03:24 22.1 °C 20.2 °C 1010.0 hPa West 4.6 km/h 4.8 km/h 89% 0.0 mm 0 W/m2
03:29 22.1 °C 20.3 °C 1010.0 hPa WSW 5.7 km/h 6.4 km/h 89% 0.0 mm 0 W/m2
03:34 22.1 °C 20.2 °C 1009.9 hPa WSW 5.6 km/h 6.4 km/h 89% 0.0 mm 0 W/m2
03:39 22.1 °C 20.2 °C 1009.9 hPa WSW 0.3 km/h 6.4 km/h 89% 0.0 mm 0 W/m2
03:44 22 °C 20.2 °C 1009.9 hPa Calm     89% 0.0 mm 0 W/m2
03:49 22 °C 20.2 °C 1009.9 hPa Calm     89.3% 0.0 mm 0 W/m2
03:54 22 °C 20.2 °C 1009.9 hPa Calm     90% 0.0 mm 0 W/m2
03:59 21.9 °C 20.2 °C 1009.9 hPa Calm     90% 0.0 mm 0 W/m2
04:04 21.9 °C 20.2 °C 1009.9 hPa WSW 2.3 km/h 3.4 km/h 90% 0.0 mm 0 W/m2
04:09 21.9 °C 20.1 °C 1009.9 hPa WSW 6 km/h 6.4 km/h 90% 0.0 mm 0 W/m2
04:14 21.8 °C 20.2 °C 1009.9 hPa WSW 5.2 km/h 8 km/h 90.5% 0.0 mm 0 W/m2
04:19 21.8 °C 20.2 °C 1009.8 hPa WSW 5.2 km/h 6.4 km/h 91% 0.0 mm 0 W/m2
04:24 21.8 °C 20.2 °C 1009.8 hPa WSW 6 km/h 5.6 km/h 91% 0.0 mm 0 W/m2
04:29 21.7 °C 20.1 °C 1009.8 hPa WSW 6.2 km/h 8 km/h 91% 0.0 mm 0 W/m2
04:34 21.6 °C 20.1 °C 1009.7 hPa WSW 7.1 km/h 9.7 km/h 91% 0.0 mm 0 W/m2
04:39 21.6 °C 20 °C 1009.8 hPa WSW 9.2 km/h 12.6 km/h 91% 0.0 mm 0 W/m2
04:44 21.4 °C 19.9 °C 1009.8 hPa WSW 14.5 km/h 16.1 km/h 91% 0.0 mm 0 W/m2
04:49 21.3 °C 19.7 °C 1009.8 hPa WSW 12.4 km/h 14.5 km/h 91% 0.0 mm 0 W/m2
04:54 21.1 °C 19.6 °C 1009.6 hPa WSW 12.5 km/h 14.5 km/h 91% 0.0 mm 0 W/m2
04:59 20.9 °C 19.4 °C 1009.6 hPa WSW 11.9 km/h 14.5 km/h 91% 0.0 mm 0 W/m2
05:04 20.7 °C 19.1 °C 1009.5 hPa WSW 15.2 km/h 13.5 km/h 90.7% 0.0 mm 0 W/m2
05:09 20.5 °C 18.8 °C 1009.6 hPa SW 15 km/h 20.9 km/h 90% 0.0 mm 0 W/m2
05:14 20.4 °C 18.7 °C 1009.6 hPa SW 13.3 km/h 20.9 km/h 90% 0.0 mm 0 W/m2
05:19 20.3 °C 18.6 °C 1009.6 hPa WSW 9.9 km/h 14.5 km/h 90% 0.0 mm 0 W/m2
05:24 20.3 °C 18.6 °C 1009.8 hPa SW 9.2 km/h 12.9 km/h 90% 0.0 mm 0 W/m2
05:29 20.2 °C 18.6 °C 1009.8 hPa SW 10.1 km/h 11.3 km/h 90% 0.0 mm 0 W/m2
05:34 20.2 °C 18.5 °C 1009.8 hPa WSW 10.6 km/h 12.9 km/h 90% 0.0 mm 0 W/m2
05:39 20.1 °C 18.4 °C 1009.7 hPa WSW 12 km/h 11.3 km/h 90% 0.0 mm 0 W/m2
05:44 20 °C 18.4 °C 1009.6 hPa WSW 10.9 km/h 14.5 km/h 90% 0.0 mm 0 W/m2
05:49 20 °C 18.4 °C 1009.7 hPa WSW 12.9 km/h 12.9 km/h 90.5% 0.0 mm 0 W/m2
05:54 19.9 °C 18.4 °C 1009.7 hPa SW 12.7 km/h 16.1 km/h 91% 0.0 mm 0 W/m2
05:59 19.9 °C 18.4 °C 1009.8 hPa WSW 12.5 km/h 14.5 km/h 91% 0.0 mm 0 W/m2
06:04 19.8 °C 18.3 °C 1009.8 hPa WSW 13.3 km/h 16.1 km/h 91% 0.0 mm 0 W/m2
06:09 19.7 °C 18.2 °C 1009.8 hPa WSW 11 km/h 14.5 km/h 91% 0.0 mm 0 W/m2
06:14 19.7 °C 18.2 °C 1009.8 hPa WSW 14 km/h 12.9 km/h 91% 0.0 mm 0 W/m2
06:19 19.6 °C 18.1 °C 1009.8 hPa WSW 10.1 km/h 19.3 km/h 91% 0.0 mm 0 W/m2
06:24 19.5 °C 18 °C 1009.8 hPa WSW 8.5 km/h 9.7 km/h 91% 0.0 mm 0 W/m2
06:29 19.5 °C 18 °C 1009.9 hPa WSW 9.6 km/h 11.3 km/h 91% 0.0 mm 7 W/m2
06:34 19.4 °C 17.9 °C 1009.9 hPa WSW 9.4 km/h 12.9 km/h 91% 0.0 mm 11 W/m2
06:39 19.4 °C 18 °C 1009.9 hPa WSW 9.3 km/h 11.3 km/h 91.4% 0.0 mm 14 W/m2
06:44 19.3 °C 17.8 °C 1010.0 hPa WSW 7.2 km/h 9.7 km/h 91% 0.0 mm 18 W/m2
06:49 19.3 °C 17.8 °C 1010.0 hPa WSW 8 km/h 8 km/h 91% 0.0 mm 21 W/m2
06:54 19.3 °C 17.8 °C 1010.1 hPa WSW 8.6 km/h 11.3 km/h 91% 0.0 mm 25 W/m2
06:59 19.3 °C 17.8 °C 1010.1 hPa WSW 9.1 km/h 9.7 km/h 91% 0.0 mm 33 W/m2
07:04 19.3 °C 17.8 °C 1010.2 hPa WSW 8.4 km/h 9.7 km/h 91% 0.0 mm 40 W/m2
07:09 19.3 °C 17.8 °C 1010.1 hPa WSW 9.1 km/h 11.3 km/h 91% 0.0 mm 40 W/m2
07:14 19.3 °C 17.8 °C 1010.1 hPa WSW 8.8 km/h 11.3 km/h 91% 0.0 mm 49 W/m2
07:19 19.3 °C 17.8 °C 1010.1 hPa WSW 9.1 km/h 9.7 km/h 91% 0.0 mm 67 W/m2
07:24 19.3 °C 17.8 °C 1010.2 hPa WSW 9.8 km/h 14.5 km/h 91% 0.0 mm 72 W/m2
07:29 19.3 °C 17.8 °C 1010.2 hPa WSW 8.1 km/h 14.5 km/h 91% 0.0 mm 79 W/m2
07:34 19.4 °C 17.9 °C 1010.2 hPa WSW 7.9 km/h 8 km/h 91% 0.0 mm 105 W/m2
07:39 19.4 °C 17.9 °C 1010.2 hPa SW 10.3 km/h 10.5 km/h 91% 0.0 mm 118 W/m2
07:44 19.4 °C 17.9 °C 1010.2 hPa WSW 9 km/h 12.9 km/h 91% 0.0 mm 132 W/m2
07:49 19.5 °C 18 °C 1010.3 hPa WSW 12.2 km/h 11.3 km/h 91% 0.0 mm 146 W/m2
07:54 19.6 °C 18.1 °C 1010.3 hPa WSW 9.3 km/h 14.5 km/h 91% 0.0 mm 156 W/m2
07:59 19.7 °C 18.1 °C 1010.4 hPa SW 11.6 km/h 11.3 km/h 90.4% 0.0 mm 172 W/m2
08:04 19.7 °C 18 °C 1010.4 hPa WSW 13.4 km/h 14.5 km/h 90% 0.0 mm 183 W/m2
08:09 19.8 °C 18.1 °C 1010.4 hPa SW 12.4 km/h 16.1 km/h 90% 0.0 mm 188 W/m2
08:14 19.8 °C 18 °C 1010.4 hPa WSW 11.5 km/h 14.5 km/h 89.4% 0.0 mm 192 W/m2
08:19 19.9 °C 18 °C 1010.5 hPa WSW 8.4 km/h 12.9 km/h 89% 0.0 mm 195 W/m2
08:24 20 °C 18.1 °C 1010.5 hPa SW 7.7 km/h 9.7 km/h 89% 0.0 mm 206 W/m2
08:29 20.1 °C 18.2 °C 1010.5 hPa WSW 10.2 km/h 11.3 km/h 88.7% 0.0 mm 207 W/m2
08:34 20.3 °C 18.2 °C 1010.5 hPa WSW 9.7 km/h 12.9 km/h 88% 0.0 mm 200 W/m2
08:39 20.3 °C 18.3 °C 1010.5 hPa West 8.6 km/h 11.3 km/h 87.8% 0.0 mm 199 W/m2
08:44 20.5 °C 18.4 °C 1010.5 hPa WSW 8 km/h 9.7 km/h 87.7% 0.0 mm 230 W/m2
08:49 20.6 °C 18.3 °C 1010.5 hPa WSW 10.2 km/h 11.3 km/h 86.4% 0.0 mm 272 W/m2
08:54 20.9 °C 18.4 °C 1010.4 hPa West 8.9 km/h 11.3 km/h 85.8% 0.0 mm 297 W/m2
08:59 20.9 °C 18.3 °C 1010.4 hPa WSW 10.2 km/h 11.3 km/h 85% 0.0 mm 327 W/m2
09:04 21.1 °C 18.4 °C 1010.4 hPa WSW 8.5 km/h 12.9 km/h 85% 0.0 mm 348 W/m2
09:09 21.2 °C 18.5 °C 1010.4 hPa West 9.6 km/h 9.7 km/h 84.4% 0.0 mm 371 W/m2
09:14 21.3 °C 18.3 °C 1010.4 hPa WSW 12.7 km/h 14.5 km/h 83.2% 0.0 mm 387 W/m2
09:19 21.3 °C 18.3 °C 1010.4 hPa WSW 11.6 km/h 14.5 km/h 83% 0.0 mm 401 W/m2
09:24 21.4 °C 18.3 °C 1010.3 hPa West 11.8 km/h 12.9 km/h 82.5% 0.0 mm 413 W/m2
09:29 21.6 °C 18.3 °C 1010.4 hPa West 11.1 km/h 14.5 km/h 81.5% 0.0 mm 427 W/m2
09:34 21.8 °C 18.4 °C 1010.5 hPa West 11 km/h 14.5 km/h 81% 0.0 mm 448 W/m2
09:38 21.9 °C 18.4 °C 1010.5 hPa West 9.2 km/h 12.9 km/h 80.4% 0.0 mm 454 W/m2
09:44 22.2 °C 18.5 °C 1010.5 hPa West 10.3 km/h 11.3 km/h 79.6% 0.0 mm 469 W/m2
09:49 22.3 °C 18.3 °C 1010.5 hPa West 12.8 km/h 16.1 km/h 77.8% 0.0 mm 482 W/m2
09:54 22.5 °C 18.4 °C 1010.5 hPa West 10.9 km/h 14.5 km/h 78% 0.0 mm 494 W/m2
09:59 22.7 °C 18.5 °C 1010.5 hPa WSW 15 km/h 14.5 km/h 77% 0.0 mm 506 W/m2
10:04 22.8 °C 18.3 °C 1010.4 hPa WSW 16.5 km/h 19.3 km/h 75.7% 0.0 mm 515 W/m2
10:09 22.9 °C 18.3 °C 1010.4 hPa SW 13 km/h 19.3 km/h 75.5% 0.0 mm 533 W/m2
10:14 23 °C 18.4 °C 1010.4 hPa WSW 10.5 km/h 14.5 km/h 75.2% 0.0 mm 543 W/m2
10:19 23.2 °C 18.4 °C 1010.3 hPa WSW 11.6 km/h 12.9 km/h 74.3% 0.0 mm 557 W/m2
10:24 23.3 °C 18.3 °C 1010.4 hPa SW 14.5 km/h 14.5 km/h 73.3% 0.0 mm 568 W/m2
10:29 23.4 °C 18.2 °C 1010.3 hPa WSW 12.7 km/h 16.1 km/h 72.8% 0.0 mm 575 W/m2
10:34 23.6 °C 18.5 °C 1010.3 hPa SW 15 km/h 12.9 km/h 73.3% 0.0 mm 589 W/m2
10:39 23.7 °C 18.5 °C 1010.4 hPa WSW 14.8 km/h 19.3 km/h 72.3% 0.0 mm 603 W/m2
10:44 23.8 °C 18.4 °C 1010.5 hPa WSW 15.7 km/h 16.1 km/h 71.4% 0.0 mm 606 W/m2
10:49 24 °C 18.4 °C 1010.5 hPa SW 15.7 km/h 20.9 km/h 71.1% 0.0 mm 606 W/m2
10:54 24.2 °C 18.4 °C 1010.5 hPa SW 15.1 km/h 19.3 km/h 70% 0.0 mm 608 W/m2
10:59 24.2 °C 18.3 °C 1010.4 hPa West 14.9 km/h 16.1 km/h 69.4% 0.0 mm 606 W/m2
11:04 24.3 °C 18.4 °C 1010.3 hPa West 13.5 km/h 19.3 km/h 69.4% 0.0 mm 594 W/m2
11:09 24.5 °C 18.4 °C 1010.3 hPa West 10.5 km/h 19.3 km/h 68.8% 0.0 mm 584 W/m2
11:14 24.6 °C 18.4 °C 1010.2 hPa West 10.7 km/h 12.9 km/h 68.4% 0.0 mm 570 W/m2
11:19 24.7 °C 18.5 °C 1010.2 hPa West 10.3 km/h 12.9 km/h 68.5% 0.0 mm 561 W/m2
11:24 24.9 °C 18.6 °C 1010.2 hPa West 8.3 km/h 11.3 km/h 68% 0.0 mm 566 W/m2
11:29 24.9 °C 18.6 °C 1010.1 hPa West 9.5 km/h 9.7 km/h 68% 0.0 mm 566 W/m2
11:34 24.8 °C 18.6 °C 1010.1 hPa WSW 7.8 km/h 12.9 km/h 68.3% 0.0 mm 598 W/m2
11:39 25.2 °C 18.9 °C 1010.0 hPa WSW 7.5 km/h 11.3 km/h 68.1% 0.0 mm 598 W/m2
11:44 25.6 °C 19 °C 1010.0 hPa WNW 8.7 km/h 9.7 km/h 67.2% 0.0 mm 608 W/m2
11:49 25.4 °C 18.9 °C 1010.0 hPa WNW 7.8 km/h 11.3 km/h 67.2% 0.0 mm 684 W/m2
11:54 25.3 °C 18.8 °C 1010.0 hPa WNW 8 km/h 9.7 km/h 67.2% 0.0 mm 726 W/m2
11:59 25.4 °C 18.9 °C 1010.0 hPa WSW 8.3 km/h 9.7 km/h 67% 0.0 mm 737 W/m2
12:04 25.5 °C 18.7 °C 1010.0 hPa West 7.7 km/h 9.7 km/h 66.2% 0.0 mm 772 W/m2
12:09 25.5 °C 18.8 °C 1010.0 hPa West 7.7 km/h 8 km/h 66.3% 0.0 mm 779 W/m2
12:14 25.6 °C 18.9 °C 1010.0 hPa NW 10 km/h 10.1 km/h 66.3% 0.0 mm 788 W/m2
12:19 26 °C 18.9 °C 1009.9 hPa WSW 9 km/h 12.9 km/h 65.2% 0.0 mm 807 W/m2
12:24 26.1 °C 18.5 °C 1009.9 hPa West 9.4 km/h 12.9 km/h 63.2% 0.0 mm 805 W/m2
12:29 26 °C 18.6 °C 1009.9 hPa West 9.7 km/h 12.9 km/h 63.8% 0.0 mm 807 W/m2
12:34 26.3 °C 18.7 °C 1009.9 hPa WSW 8.1 km/h 9.7 km/h 63% 0.0 mm 809 W/m2
12:39 26.5 °C 18.9 °C 1009.9 hPa WSW 9.1 km/h 12.9 km/h 62.8% 0.0 mm 823 W/m2
12:44 26.7 °C 19.1 °C 1009.8 hPa West 9.3 km/h 12.9 km/h 63% 0.0 mm 817 W/m2
12:49 26.8 °C 19.2 °C 1009.7 hPa West 7.5 km/h 11.3 km/h 63.1% 0.0 mm 788 W/m2
12:54 26.9 °C 19.3 °C 1009.6 hPa West 8.2 km/h 8.4 km/h 63.3% 0.0 mm 867 W/m2
12:58 27 °C 19.4 °C 1009.5 hPa WSW 8.7 km/h 12.9 km/h 63.4% 0.0 mm 867 W/m2
13:04 27.2 °C 19.5 °C 1009.4 hPa WSW 8 km/h 9.7 km/h 62.9% 0.0 mm 856 W/m2
13:09 27.3 °C 19.3 °C 1009.3 hPa West 7.3 km/h 12.9 km/h 61.7% 0.0 mm 842 W/m2
13:13 27.1 °C 19.2 °C 1009.3 hPa NW 7 km/h 9.7 km/h 62% 0.0 mm 846 W/m2
13:19 27.2 °C 19 °C 1009.3 hPa West 8.7 km/h 11.4 km/h 60.7% 0.0 mm 851 W/m2
13:24 27.5 °C 19 °C 1009.3 hPa NW 7.9 km/h 12.9 km/h 59.7% 0.0 mm 854 W/m2
13:29 27.3 °C 19.1 °C 1009.2 hPa WNW 8.1 km/h 9.7 km/h 60.7% 0.0 mm 821 W/m2
13:34 27.5 °C 18.9 °C 1009.0 hPa WSW 10.6 km/h 11.7 km/h 59.6% 0.0 mm 749 W/m2
13:39 27.6 °C 18.7 °C 1009.0 hPa NW 10 km/h 14.5 km/h 58.4% 0.0 mm 712 W/m2
13:44 27.4 °C 19 °C 1009.0 hPa NW 5.4 km/h 12.9 km/h 60.2% 0.0 mm 647 W/m2
13:49 27.6 °C 19.3 °C 1008.9 hPa SW 6.6 km/h 8 km/h 60.8% 0.0 mm 731 W/m2
13:54 28 °C 19.3 °C 1008.9 hPa West 10.7 km/h 11.3 km/h 59.3% 0.0 mm 833 W/m2
13:59 27.9 °C 19.6 °C 1008.8 hPa WNW 9.1 km/h 12.9 km/h 60.7% 0.0 mm 851 W/m2
14:04 27.9 °C 19.9 °C 1008.7 hPa WNW 8.3 km/h 12.9 km/h 61.8% 0.0 mm 870 W/m2
14:09 28.1 °C 20.1 °C 1008.6 hPa NNW 8.5 km/h 9.7 km/h 62.2% 0.0 mm 821 W/m2
14:14 27.9 °C 20 °C 1008.7 hPa NNW 7.4 km/h 11.3 km/h 62.1% 0.0 mm 838 W/m2
14:19 27.9 °C 19.9 °C 1008.7 hPa NE 6.3 km/h 9.7 km/h 61.8% 0.0 mm 780 W/m2
14:24 28.3 °C 19.9 °C 1008.7 hPa South 5.8 km/h 9.7 km/h 60.7% 0.0 mm 826 W/m2
14:29 28.7 °C 20.1 °C 1008.5 hPa SE 4.4 km/h 8 km/h 60% 0.0 mm 501 W/m2
14:34 28.8 °C 20.1 °C 1008.5 hPa SW 5.8 km/h 6 km/h 59.7% 0.0 mm 411 W/m2
14:39 28.7 °C 20.3 °C 1008.5 hPa SW 8.4 km/h 8 km/h 60.7% 0.0 mm 603 W/m2
14:44 28.7 °C 20.4 °C 1008.5 hPa WSW 7.9 km/h 12.9 km/h 61.2% 0.0 mm 548 W/m2
14:49 28.5 °C 20.2 °C 1008.5 hPa SW 8 km/h 11.3 km/h 60.8% 0.0 mm 561 W/m2
14:54 28.6 °C 20.3 °C 1008.3 hPa West 7.6 km/h 9.7 km/h 61.2% 0.0 mm 568 W/m2
14:59 28.5 °C 20.2 °C 1008.4 hPa WSW 8.5 km/h 9.7 km/h 61% 0.0 mm 548 W/m2
15:04 28.3 °C 20.2 °C 1008.3 hPa SSW 7.8 km/h 9.7 km/h 61.5% 0.0 mm 476 W/m2
15:09 28.4 °C 20.2 °C 1008.3 hPa SSW 6 km/h 9.7 km/h 61.3% 0.0 mm 571 W/m2
15:14 28.5 °C 20.2 °C 1008.3 hPa WSW 9.9 km/h 9.7 km/h 61% 0.0 mm 592 W/m2
15:19 28.6 °C 20.2 °C 1008.3 hPa WSW 8.9 km/h 12.9 km/h 60.6% 0.0 mm 550 W/m2
15:24 28.6 °C 20 °C 1008.3 hPa SW 11.3 km/h 11.3 km/h 59.4% 0.0 mm 642 W/m2
15:29 28.6 °C 19.8 °C 1008.3 hPa SSW 9.1 km/h 14.5 km/h 59% 0.0 mm 642 W/m2
15:34 28.6 °C 19.8 °C 1008.3 hPa SW 12.8 km/h 11.1 km/h 59% 0.0 mm 629 W/m2
15:39 28.5 °C 19.8 °C 1008.3 hPa SW 9 km/h 16.1 km/h 59.3% 0.0 mm 346 W/m2
15:44 28.5 °C 19.8 °C 1008.3 hPa WSW 8.2 km/h 11.3 km/h 59.2% 0.0 mm 381 W/m2
15:48 28.5 °C 19.5 °C 1008.3 hPa WSW 10 km/h 12.9 km/h 58% 0.0 mm 325 W/m2
15:54 28.5 °C 19.5 °C 1008.3 hPa SW 5.2 km/h 12.9 km/h 58.2% 0.0 mm 677 W/m2
15:59 28.5 °C 19.5 °C 1008.3 hPa SSW 11.6 km/h 12.9 km/h 58.1% 0.0 mm 677 W/m2
16:04 28.4 °C 19.4 °C 1008.3 hPa South 9.4 km/h 14.5 km/h 58.2% 0.0 mm 606 W/m2
16:09 28.7 °C 19.5 °C 1008.2 hPa South 8.7 km/h 11.3 km/h 57.6% 0.0 mm 517 W/m2
16:14 28.7 °C 19.4 °C 1008.1 hPa SW 9.9 km/h 11.3 km/h 57.1% 0.0 mm 441 W/m2
16:19 28.6 °C 19.3 °C 1008.1 hPa SSW 12.4 km/h 12.9 km/h 57% 0.0 mm 432 W/m2
16:24 28.5 °C 19.3 °C 1008.1 hPa South 9.3 km/h 14.5 km/h 57.4% 0.0 mm 369 W/m2
16:29 28.6 °C 19.4 °C 1008.1 hPa SW 10.5 km/h 11.3 km/h 57.7% 0.0 mm 295 W/m2
16:34 28.6 °C 19.3 °C 1008.1 hPa West 10.1 km/h 14.5 km/h 57% 0.0 mm 362 W/m2
16:39 28.6 °C 19.2 °C 1008.0 hPa WSW 10.4 km/h 11.3 km/h 56.8% 0.0 mm 425 W/m2
16:44 28.6 °C 19 °C 1008.0 hPa WSW 13 km/h 13 km/h 56.2% 0.0 mm 527 W/m2
16:49 28.6 °C 19 °C 1008.0 hPa WSW 15.9 km/h 16.1 km/h 56% 0.0 mm 617 W/m2
16:54 28.6 °C 18.8 °C 1008.0 hPa WSW 13.8 km/h 19.3 km/h 55.4% 0.0 mm 457 W/m2
16:59 28.5 °C 18.9 °C 1008.0 hPa West 12.8 km/h 19.3 km/h 56% 0.0 mm 401 W/m2
17:04 28.4 °C 18.6 °C 1008.0 hPa WNW 14.2 km/h 16.1 km/h 55.4% 0.0 mm 508 W/m2
17:09 28.3 °C 18.1 °C 1007.9 hPa West 15.3 km/h 19.3 km/h 53.8% 0.0 mm 397 W/m2
17:14 28.3 °C 18.1 °C 1008.0 hPa West 14.3 km/h 19.3 km/h 54.2% 0.0 mm 461 W/m2
17:19 28.2 °C 18.5 °C 1007.9 hPa WSW 13 km/h 19.3 km/h 55.5% 0.0 mm 285 W/m2
17:24 28.2 °C 18.5 °C 1007.9 hPa WSW 12.6 km/h 16.1 km/h 55.5% 0.0 mm 276 W/m2
17:29 28.1 °C 18.2 °C 1007.9 hPa WSW 15 km/h 16.1 km/h 55% 0.0 mm 287 W/m2
17:34 27.9 °C 18 °C 1007.8 hPa West 12.8 km/h 19.3 km/h 55% 0.0 mm 243 W/m2
17:39 27.8 °C 17.9 °C 1007.8 hPa WSW 12.2 km/h 16.1 km/h 55% 0.0 mm 230 W/m2
17:44 27.7 °C 17.9 °C 1007.8 hPa West 12 km/h 14.5 km/h 55% 0.0 mm 227 W/m2
17:49 27.6 °C 17.8 °C 1007.7 hPa West 15.1 km/h 16.1 km/h 55.2% 0.0 mm 206 W/m2
17:54 27.5 °C 17.6 °C 1007.6 hPa West 12.7 km/h 19.3 km/h 55% 0.0 mm 188 W/m2
17:59 27.4 °C 17.5 °C 1007.6 hPa WSW 13.4 km/h 14.5 km/h 55% 0.0 mm 178 W/m2
18:04 27.3 °C 17.5 °C 1007.5 hPa WSW 13.9 km/h 16.1 km/h 55% 0.0 mm 178 W/m2
18:09 27.2 °C 17.4 °C 1007.6 hPa WSW 11.9 km/h 16.1 km/h 55% 0.0 mm 167 W/m2
18:14 27.1 °C 17.5 °C 1007.5 hPa WSW 11.5 km/h 14.5 km/h 55.6% 0.0 mm 155 W/m2
18:19 27.1 °C 17.6 °C 1007.6 hPa WSW 9.6 km/h 12.9 km/h 56.3% 0.0 mm 148 W/m2
18:24 27.1 °C 17.8 °C 1007.5 hPa WSW 12 km/h 12.9 km/h 57% 0.0 mm 135 W/m2
18:29 27.1 °C 18.1 °C 1007.5 hPa WSW 9 km/h 14.5 km/h 58% 0.0 mm 134 W/m2
18:34 27 °C 18.3 °C 1007.4 hPa WSW 10.1 km/h 11.3 km/h 59% 0.0 mm 139 W/m2
18:39 27 °C 18.2 °C 1007.3 hPa SW 9.2 km/h 11.3 km/h 58.6% 0.0 mm 141 W/m2
18:44 27 °C 18.1 °C 1007.2 hPa WSW 10.2 km/h 12.9 km/h 58.2% 0.0 mm 141 W/m2
18:49 26.9 °C 18 °C 1007.2 hPa WSW 10.3 km/h 11.3 km/h 58% 0.0 mm 153 W/m2
18:53 26.9 °C 18 °C 1007.2 hPa WSW 13 km/h 12.9 km/h 58% 0.0 mm 153 W/m2
18:59 26.9 °C 18 °C 1007.1 hPa WSW 12.8 km/h 14.5 km/h 58.2% 0.0 mm 167 W/m2
19:04 26.8 °C 17.8 °C 1007.0 hPa WSW 14.3 km/h 16.1 km/h 57.6% 0.0 mm 174 W/m2
19:09 26.8 °C 17.9 °C 1007.0 hPa WSW 10 km/h 16.1 km/h 58.2% 0.0 mm 174 W/m2
19:14 26.8 °C 18.3 °C 1007.1 hPa SW 10 km/h 11.3 km/h 59.7% 0.0 mm 135 W/m2
19:19 26.8 °C 18.2 °C 1007.2 hPa SW 11 km/h 12.9 km/h 59.3% 0.0 mm 120 W/m2
19:23 26.7 °C 18.2 °C 1007.1 hPa SW 9.9 km/h 12.9 km/h 59.4% 0.0 mm 107 W/m2
19:29 26.7 °C 18.3 °C 1007.2 hPa WSW 8.7 km/h 11.3 km/h 60% 0.0 mm 83 W/m2
19:34 26.6 °C 18.2 °C 1007.2 hPa WSW 8.2 km/h 9.7 km/h 60.2% 0.0 mm 62 W/m2
19:39 26.5 °C 18.4 °C 1007.2 hPa SW 8.7 km/h 9.7 km/h 61% 0.0 mm 47 W/m2
19:44 26.4 °C 18.3 °C 1007.2 hPa SW 6.9 km/h 9.7 km/h 61% 0.0 mm 42 W/m2
19:49 26.3 °C 18.4 °C 1007.4 hPa SW 6.2 km/h 9.7 km/h 62% 0.0 mm 37 W/m2
19:54 26.2 °C 18.4 °C 1007.4 hPa SW 7.4 km/h 8 km/h 62.2% 0.0 mm 53 W/m2
19:59 26.1 °C 18.4 °C 1007.3 hPa SW 6.4 km/h 9.7 km/h 62.8% 0.0 mm 60 W/m2
20:04 26 °C 18.4 °C 1007.3 hPa SW 6.6 km/h 8 km/h 63% 0.0 mm 54 W/m2
20:09 25.9 °C 18.3 °C 1007.3 hPa SW 7.6 km/h 8 km/h 63% 0.0 mm 40 W/m2
20:14 25.8 °C 18.4 °C 1007.2 hPa SW 5.4 km/h 9.7 km/h 63.8% 0.0 mm 25 W/m2
20:19 25.7 °C 18.4 °C 1007.2 hPa SW 8.8 km/h 8 km/h 64% 0.0 mm 16 W/m2
20:24 25.6 °C 18.3 °C 1007.2 hPa SW 8.5 km/h 11.3 km/h 64% 0.0 mm 11 W/m2
20:29 25.5 °C 18.2 °C 1007.3 hPa WSW 8.7 km/h 11.3 km/h 64% 0.0 mm 7 W/m2
20:34 25.3 °C 18.2 °C 1007.4 hPa SW 8.3 km/h 9.7 km/h 64.9% 0.0 mm 5 W/m2
20:39 25.2 °C 18.1 °C 1007.4 hPa WSW 7.9 km/h 9.7 km/h 65% 0.0 mm 0 W/m2
20:44 25.1 °C 18 °C 1007.5 hPa WSW 9.3 km/h 9.7 km/h 65% 0.0 mm 0 W/m2
20:49 25 °C 18 °C 1007.5 hPa SW 9.8 km/h 9.7 km/h 65.1% 0.0 mm 0 W/m2
20:53 24.9 °C 18 °C 1007.6 hPa WSW 10.6 km/h 11.3 km/h 65.6% 0.0 mm 0 W/m2
23:39 22 °C 17.6 °C 1007.7 hPa SW 11.1 km/h 6.8 km/h 76% 0.0 mm 0 W/m2
23:44 22 °C 17.5 °C 1007.8 hPa WSW 8.9 km/h 6.9 km/h 76% 0.0 mm 0 W/m2
23:49 21.9 °C 17.5 °C 1007.8 hPa SW 9 km/h 9.7 km/h 76% 0.0 mm 0 W/m2
23:54 21.8 °C 17.4 °C 1007.9 hPa WSW 8.7 km/h 11.3 km/h 76.3% 0.0 mm 0 W/m2
23:59 21.8 °C 17.5 °C 1007.9 hPa WSW 7.6 km/h 11.3 km/h 76.8% 0.0 mm 0 W/m2
Lodi Weather
Compliments of Weather Underground - 3.25 mb